sensor_id;sensor_type;location;lat;lon;timestamp;P1;durP1;ratioP1;P2;durP2;ratioP2
68583;SDS011;55557;49.220;11.150;2024-02-23T00:00:06;0.50;;;0.50;;
68583;SDS011;55557;49.220;11.150;2024-02-23T00:02:32;0.57;;;0.40;;
68583;SDS011;55557;49.220;11.150;2024-02-23T00:04:58;0.90;;;0.40;;
68583;SDS011;55557;49.220;11.150;2024-02-23T00:07:24;0.17;;;0.17;;
68583;SDS011;55557;49.220;11.150;2024-02-23T00:09:50;0.37;;;0.37;;
68583;SDS011;55557;49.220;11.150;2024-02-23T00:12:16;0.53;;;0.30;;
68583;SDS011;55557;49.220;11.150;2024-02-23T00:14:42;0.30;;;0.30;;
68583;SDS011;55557;49.220;11.150;2024-02-23T00:17:08;0.33;;;0.30;;
68583;SDS011;55557;49.220;11.150;2024-02-23T00:19:34;0.53;;;0.40;;
68583;SDS011;55557;49.220;11.150;2024-02-23T00:22:00;0.53;;;0.20;;
68583;SDS011;55557;49.220;11.150;2024-02-23T00:24:27;0.13;;;0.13;;
68583;SDS011;55557;49.220;11.150;2024-02-23T00:26:54;0.47;;;0.40;;
68583;SDS011;55557;49.220;11.150;2024-02-23T00:29:20;0.20;;;0.20;;
68583;SDS011;55557;49.220;11.150;2024-02-23T00:31:48;0.87;;;0.30;;
68583;SDS011;55557;49.220;11.150;2024-02-23T00:34:15;1.60;;;0.20;;
68583;SDS011;55557;49.220;11.150;2024-02-23T00:36:41;0.10;;;0.10;;
68583;SDS011;55557;49.220;11.150;2024-02-23T00:39:09;0.67;;;0.10;;
68583;SDS011;55557;49.220;11.150;2024-02-23T00:41:36;0.60;;;0.27;;
68583;SDS011;55557;49.220;11.150;2024-02-23T00:44:02;0.20;;;0.10;;
68583;SDS011;55557;49.220;11.150;2024-02-23T00:46:28;0.10;;;0.10;;
68583;SDS011;55557;49.220;11.150;2024-02-23T00:48:54;3.37;;;0.30;;
68583;SDS011;55557;49.220;11.150;2024-02-23T00:51:20;0.47;;;0.20;;
68583;SDS011;55557;49.220;11.150;2024-02-23T00:53:46;1.10;;;0.47;;
68583;SDS011;55557;49.220;11.150;2024-02-23T00:56:12;0.60;;;0.13;;
68583;SDS011;55557;49.220;11.150;2024-02-23T00:58:38;1.17;;;0.23;;
68583;SDS011;55557;49.220;11.150;2024-02-23T01:01:05;0.00;;;0.00;;
68583;SDS011;55557;49.220;11.150;2024-02-23T01:03:31;1.70;;;0.40;;
68583;SDS011;55557;49.220;11.150;2024-02-23T01:05:57;0.17;;;0.17;;
68583;SDS011;55557;49.220;11.150;2024-02-23T01:08:23;0.00;;;0.00;;
68583;SDS011;55557;49.220;11.150;2024-02-23T01:10:49;0.43;;;0.20;;
68583;SDS011;55557;49.220;11.150;2024-02-23T01:13:15;0.10;;;0.10;;
68583;SDS011;55557;49.220;11.150;2024-02-23T01:15:41;0.10;;;0.10;;
68583;SDS011;55557;49.220;11.150;2024-02-23T01:18:07;0.10;;;0.10;;
68583;SDS011;55557;49.220;11.150;2024-02-23T01:20:33;2.47;;;0.20;;
68583;SDS011;55557;49.220;11.150;2024-02-23T01:23:00;0.47;;;0.30;;
68583;SDS011;55557;49.220;11.150;2024-02-23T01:25:26;0.40;;;0.20;;
68583;SDS011;55557;49.220;11.150;2024-02-23T01:27:52;0.20;;;0.20;;
68583;SDS011;55557;49.220;11.150;2024-02-23T01:30:18;1.10;;;0.10;;
68583;SDS011;55557;49.220;11.150;2024-02-23T01:32:44;1.03;;;0.20;;
68583;SDS011;55557;49.220;11.150;2024-02-23T01:35:10;0.20;;;0.20;;
68583;SDS011;55557;49.220;11.150;2024-02-23T01:37:36;0.20;;;0.20;;
68583;SDS011;55557;49.220;11.150;2024-02-23T01:40:03;0.40;;;0.30;;
68583;SDS011;55557;49.220;11.150;2024-02-23T01:42:29;0.50;;;0.23;;
68583;SDS011;55557;49.220;11.150;2024-02-23T01:44:55;0.10;;;0.10;;
68583;SDS011;55557;49.220;11.150;2024-02-23T01:47:22;1.83;;;0.30;;
68583;SDS011;55557;49.220;11.150;2024-02-23T01:49:48;0.17;;;0.17;;
68583;SDS011;55557;49.220;11.150;2024-02-23T01:52:14;0.10;;;0.10;;
68583;SDS011;55557;49.220;11.150;2024-02-23T01:54:41;0.67;;;0.10;;
68583;SDS011;55557;49.220;11.150;2024-02-23T01:57:07;0.10;;;0.10;;
68583;SDS011;55557;49.220;11.150;2024-02-23T01:59:35;0.77;;;0.57;;
68583;SDS011;55557;49.220;11.150;2024-02-23T02:02:02;0.30;;;0.30;;
68583;SDS011;55557;49.220;11.150;2024-02-23T02:04:28;0.60;;;0.20;;
68583;SDS011;55557;49.220;11.150;2024-02-23T02:06:54;2.93;;;0.33;;
68583;SDS011;55557;49.220;11.150;2024-02-23T02:09:21;0.37;;;0.37;;
68583;SDS011;55557;49.220;11.150;2024-02-23T02:11:47;1.27;;;0.43;;
68583;SDS011;55557;49.220;11.150;2024-02-23T02:14:14;0.30;;;0.20;;
68583;SDS011;55557;49.220;11.150;2024-02-23T02:16:40;3.97;;;0.40;;
68583;SDS011;55557;49.220;11.150;2024-02-23T02:19:06;0.23;;;0.23;;
68583;SDS011;55557;49.220;11.150;2024-02-23T02:21:32;3.50;;;0.50;;
68583;SDS011;55557;49.220;11.150;2024-02-23T02:23:59;3.60;;;0.63;;
68583;SDS011;55557;49.220;11.150;2024-02-23T02:26:25;2.37;;;0.40;;
68583;SDS011;55557;49.220;11.150;2024-02-23T02:28:51;1.10;;;0.30;;
68583;SDS011;55557;49.220;11.150;2024-02-23T02:31:17;3.00;;;0.93;;
68583;SDS011;55557;49.220;11.150;2024-02-23T02:33:43;0.10;;;0.10;;
68583;SDS011;55557;49.220;11.150;2024-02-23T02:36:09;1.23;;;0.40;;
68583;SDS011;55557;49.220;11.150;2024-02-23T02:38:36;0.43;;;0.43;;
68583;SDS011;55557;49.220;11.150;2024-02-23T02:41:03;1.17;;;0.40;;
68583;SDS011;55557;49.220;11.150;2024-02-23T02:43:30;1.83;;;0.37;;
68583;SDS011;55557;49.220;11.150;2024-02-23T02:45:56;2.50;;;0.43;;
68583;SDS011;55557;49.220;11.150;2024-02-23T02:48:22;4.20;;;0.23;;
68583;SDS011;55557;49.220;11.150;2024-02-23T02:50:48;2.67;;;0.83;;
68583;SDS011;55557;49.220;11.150;2024-02-23T02:53:15;0.60;;;0.37;;
68583;SDS011;55557;49.220;11.150;2024-02-23T02:55:44;0.30;;;0.30;;
68583;SDS011;55557;49.220;11.150;2024-02-23T02:58:11;2.20;;;0.60;;
68583;SDS011;55557;49.220;11.150;2024-02-23T03:00:40;1.50;;;0.40;;
68583;SDS011;55557;49.220;11.150;2024-02-23T03:03:06;0.10;;;0.10;;
68583;SDS011;55557;49.220;11.150;2024-02-23T03:05:32;0.67;;;0.27;;
68583;SDS011;55557;49.220;11.150;2024-02-23T03:07:58;3.07;;;0.40;;
68583;SDS011;55557;49.220;11.150;2024-02-23T03:10:25;0.80;;;0.30;;
68583;SDS011;55557;49.220;11.150;2024-02-23T03:12:51;0.90;;;0.30;;
68583;SDS011;55557;49.220;11.150;2024-02-23T03:15:17;1.27;;;0.60;;
68583;SDS011;55557;49.220;11.150;2024-02-23T03:17:43;0.87;;;0.33;;
68583;SDS011;55557;49.220;11.150;2024-02-23T03:20:10;1.80;;;0.40;;
68583;SDS011;55557;49.220;11.150;2024-02-23T03:22:37;1.23;;;0.43;;
68583;SDS011;55557;49.220;11.150;2024-02-23T03:25:03;0.40;;;0.40;;
68583;SDS011;55557;49.220;11.150;2024-02-23T03:27:33;0.30;;;0.30;;
68583;SDS011;55557;49.220;11.150;2024-02-23T03:30:01;3.90;;;0.80;;
68583;SDS011;55557;49.220;11.150;2024-02-23T03:32:27;1.43;;;0.43;;
68583;SDS011;55557;49.220;11.150;2024-02-23T03:34:53;3.83;;;0.40;;
68583;SDS011;55557;49.220;11.150;2024-02-23T03:37:19;3.40;;;0.70;;
68583;SDS011;55557;49.220;11.150;2024-02-23T03:39:45;1.33;;;0.57;;
68583;SDS011;55557;49.220;11.150;2024-02-23T03:42:13;1.50;;;0.30;;
68583;SDS011;55557;49.220;11.150;2024-02-23T03:44:39;1.10;;;0.43;;
68583;SDS011;55557;49.220;11.150;2024-02-23T03:47:07;2.53;;;0.47;;
68583;SDS011;55557;49.220;11.150;2024-02-23T03:49:33;0.73;;;0.50;;
68583;SDS011;55557;49.220;11.150;2024-02-23T03:51:59;0.80;;;0.47;;
68583;SDS011;55557;49.220;11.150;2024-02-23T03:54:25;1.53;;;0.70;;
68583;SDS011;55557;49.220;11.150;2024-02-23T03:56:51;2.27;;;0.50;;
68583;SDS011;55557;49.220;11.150;2024-02-23T03:59:17;3.47;;;0.40;;
68583;SDS011;55557;49.220;11.150;2024-02-23T04:01:43;1.27;;;0.43;;
68583;SDS011;55557;49.220;11.150;2024-02-23T04:04:09;2.50;;;0.60;;
68583;SDS011;55557;49.220;11.150;2024-02-23T04:06:35;0.50;;;0.30;;
68583;SDS011;55557;49.220;11.150;2024-02-23T04:09:01;3.10;;;0.60;;
68583;SDS011;55557;49.220;11.150;2024-02-23T04:11:30;2.17;;;0.93;;
68583;SDS011;55557;49.220;11.150;2024-02-23T04:13:56;3.20;;;0.60;;
68583;SDS011;55557;49.220;11.150;2024-02-23T04:16:22;1.23;;;0.40;;
68583;SDS011;55557;49.220;11.150;2024-02-23T04:18:48;0.70;;;0.50;;
68583;SDS011;55557;49.220;11.150;2024-02-23T04:21:14;3.90;;;0.80;;
68583;SDS011;55557;49.220;11.150;2024-02-23T04:23:40;0.63;;;0.60;;
68583;SDS011;55557;49.220;11.150;2024-02-23T04:26:06;0.70;;;0.40;;
68583;SDS011;55557;49.220;11.150;2024-02-23T04:28:34;0.60;;;0.60;;
68583;SDS011;55557;49.220;11.150;2024-02-23T04:31:00;1.43;;;0.40;;
68583;SDS011;55557;49.220;11.150;2024-02-23T04:33:26;0.50;;;0.50;;
68583;SDS011;55557;49.220;11.150;2024-02-23T04:35:52;0.83;;;0.37;;
68583;SDS011;55557;49.220;11.150;2024-02-23T04:38:18;3.10;;;0.70;;
68583;SDS011;55557;49.220;11.150;2024-02-23T04:40:44;5.90;;;1.10;;
68583;SDS011;55557;49.220;11.150;2024-02-23T04:43:10;0.73;;;0.40;;
68583;SDS011;55557;49.220;11.150;2024-02-23T04:45:36;1.60;;;0.57;;
68583;SDS011;55557;49.220;11.150;2024-02-23T04:48:02;3.03;;;0.23;;
68583;SDS011;55557;49.220;11.150;2024-02-23T04:50:28;3.30;;;0.80;;
68583;SDS011;55557;49.220;11.150;2024-02-23T04:52:54;0.37;;;0.30;;
68583;SDS011;55557;49.220;11.150;2024-02-23T04:55:20;3.83;;;0.73;;
68583;SDS011;55557;49.220;11.150;2024-02-23T04:57:46;0.33;;;0.30;;
68583;SDS011;55557;49.220;11.150;2024-02-23T05:00:13;1.50;;;0.70;;
68583;SDS011;55557;49.220;11.150;2024-02-23T05:02:39;0.40;;;0.33;;
68583;SDS011;55557;49.220;11.150;2024-02-23T05:05:05;0.87;;;0.70;;
68583;SDS011;55557;49.220;11.150;2024-02-23T05:07:32;0.70;;;0.60;;
68583;SDS011;55557;49.220;11.150;2024-02-23T05:09:59;3.87;;;0.70;;
68583;SDS011;55557;49.220;11.150;2024-02-23T05:12:25;1.20;;;0.80;;
68583;SDS011;55557;49.220;11.150;2024-02-23T05:14:51;0.87;;;0.77;;
68583;SDS011;55557;49.220;11.150;2024-02-23T05:17:17;5.03;;;0.97;;
68583;SDS011;55557;49.220;11.150;2024-02-23T05:19:43;0.50;;;0.40;;
68583;SDS011;55557;49.220;11.150;2024-02-23T05:22:11;0.50;;;0.50;;
68583;SDS011;55557;49.220;11.150;2024-02-23T05:24:37;1.23;;;0.57;;
68583;SDS011;55557;49.220;11.150;2024-02-23T05:27:03;1.30;;;0.60;;
68583;SDS011;55557;49.220;11.150;2024-02-23T05:29:29;3.30;;;0.97;;
68583;SDS011;55557;49.220;11.150;2024-02-23T05:31:55;3.80;;;1.00;;
68583;SDS011;55557;49.220;11.150;2024-02-23T05:34:21;1.23;;;0.43;;
68583;SDS011;55557;49.220;11.150;2024-02-23T05:36:47;2.57;;;0.73;;
68583;SDS011;55557;49.220;11.150;2024-02-23T05:39:15;2.37;;;0.60;;
68583;SDS011;55557;49.220;11.150;2024-02-23T05:41:42;1.40;;;0.43;;
68583;SDS011;55557;49.220;11.150;2024-02-23T05:44:09;4.43;;;0.63;;
68583;SDS011;55557;49.220;11.150;2024-02-23T05:46:35;0.60;;;0.50;;
68583;SDS011;55557;49.220;11.150;2024-02-23T05:49:02;0.53;;;0.53;;
68583;SDS011;55557;49.220;11.150;2024-02-23T05:51:31;1.30;;;0.60;;
68583;SDS011;55557;49.220;11.150;2024-02-23T05:53:58;2.23;;;1.03;;
68583;SDS011;55557;49.220;11.150;2024-02-23T05:56:24;4.37;;;1.03;;
68583;SDS011;55557;49.220;11.150;2024-02-23T05:58:51;1.43;;;0.73;;
68583;SDS011;55557;49.220;11.150;2024-02-23T06:01:17;0.73;;;0.37;;
68583;SDS011;55557;49.220;11.150;2024-02-23T06:03:43;1.47;;;0.60;;
68583;SDS011;55557;49.220;11.150;2024-02-23T06:06:10;3.80;;;0.80;;
68583;SDS011;55557;49.220;11.150;2024-02-23T06:08:36;0.50;;;0.50;;
68583;SDS011;55557;49.220;11.150;2024-02-23T06:11:03;1.80;;;1.00;;
68583;SDS011;55557;49.220;11.150;2024-02-23T06:13:29;0.93;;;0.80;;
68583;SDS011;55557;49.220;11.150;2024-02-23T06:15:55;2.20;;;0.87;;
68583;SDS011;55557;49.220;11.150;2024-02-23T06:18:21;3.27;;;0.87;;
68583;SDS011;55557;49.220;11.150;2024-02-23T06:20:48;1.60;;;1.10;;
68583;SDS011;55557;49.220;11.150;2024-02-23T06:23:15;2.37;;;1.10;;
68583;SDS011;55557;49.220;11.150;2024-02-23T06:25:42;1.27;;;0.87;;
68583;SDS011;55557;49.220;11.150;2024-02-23T06:28:08;0.73;;;0.70;;
68583;SDS011;55557;49.220;11.150;2024-02-23T06:30:35;1.00;;;0.80;;
68583;SDS011;55557;49.220;11.150;2024-02-23T06:33:02;1.13;;;0.63;;
68583;SDS011;55557;49.220;11.150;2024-02-23T06:35:29;1.80;;;0.60;;
68583;SDS011;55557;49.220;11.150;2024-02-23T06:37:56;5.67;;;1.00;;
68583;SDS011;55557;49.220;11.150;2024-02-23T06:40:22;2.53;;;1.50;;
68583;SDS011;55557;49.220;11.150;2024-02-23T06:42:47;2.80;;;1.37;;
68583;SDS011;55557;49.220;11.150;2024-02-23T06:45:15;1.53;;;1.03;;
68583;SDS011;55557;49.220;11.150;2024-02-23T06:47:41;2.67;;;1.07;;
68583;SDS011;55557;49.220;11.150;2024-02-23T06:50:07;0.97;;;0.77;;
68583;SDS011;55557;49.220;11.150;2024-02-23T06:52:33;5.03;;;0.90;;
68583;SDS011;55557;49.220;11.150;2024-02-23T06:54:59;1.90;;;1.03;;
68583;SDS011;55557;49.220;11.150;2024-02-23T06:57:25;0.70;;;0.70;;
68583;SDS011;55557;49.220;11.150;2024-02-23T06:59:52;2.47;;;0.80;;
68583;SDS011;55557;49.220;11.150;2024-02-23T07:02:18;2.33;;;0.73;;
68583;SDS011;55557;49.220;11.150;2024-02-23T07:04:47;3.60;;;1.30;;
68583;SDS011;55557;49.220;11.150;2024-02-23T07:07:16;4.70;;;1.50;;
68583;SDS011;55557;49.220;11.150;2024-02-23T07:09:42;7.90;;;2.13;;
68583;SDS011;55557;49.220;11.150;2024-02-23T07:12:08;4.23;;;2.30;;
68583;SDS011;55557;49.220;11.150;2024-02-23T07:14:38;2.57;;;2.20;;
68583;SDS011;55557;49.220;11.150;2024-02-23T07:17:04;3.90;;;1.20;;
68583;SDS011;55557;49.220;11.150;2024-02-23T07:19:31;2.37;;;1.33;;
68583;SDS011;55557;49.220;11.150;2024-02-23T07:21:57;4.03;;;1.20;;
68583;SDS011;55557;49.220;11.150;2024-02-23T07:24:23;5.03;;;1.63;;
68583;SDS011;55557;49.220;11.150;2024-02-23T07:26:49;1.37;;;1.10;;
68583;SDS011;55557;49.220;11.150;2024-02-23T07:29:15;1.50;;;1.20;;
68583;SDS011;55557;49.220;11.150;2024-02-23T07:31:41;1.43;;;1.13;;
68583;SDS011;55557;49.220;11.150;2024-02-23T07:34:07;6.40;;;0.93;;
68583;SDS011;55557;49.220;11.150;2024-02-23T07:36:33;2.03;;;0.50;;
68583;SDS011;55557;49.220;11.150;2024-02-23T07:38:59;1.17;;;0.87;;
68583;SDS011;55557;49.220;11.150;2024-02-23T07:41:25;1.27;;;0.40;;
68583;SDS011;55557;49.220;11.150;2024-02-23T07:43:52;1.07;;;0.57;;
68583;SDS011;55557;49.220;11.150;2024-02-23T07:46:17;0.40;;;0.40;;
68583;SDS011;55557;49.220;11.150;2024-02-23T07:48:45;6.17;;;2.63;;
68583;SDS011;55557;49.220;11.150;2024-02-23T07:51:13;4.33;;;2.43;;
68583;SDS011;55557;49.220;11.150;2024-02-23T07:53:39;4.47;;;2.40;;
68583;SDS011;55557;49.220;11.150;2024-02-23T07:56:07;7.73;;;3.30;;
68583;SDS011;55557;49.220;11.150;2024-02-23T07:58:33;4.20;;;2.13;;
68583;SDS011;55557;49.220;11.150;2024-02-23T08:00:59;3.67;;;1.20;;
68583;SDS011;55557;49.220;11.150;2024-02-23T08:03:25;1.53;;;0.83;;
68583;SDS011;55557;49.220;11.150;2024-02-23T08:05:51;2.90;;;1.57;;
68583;SDS011;55557;49.220;11.150;2024-02-23T08:08:17;4.57;;;1.00;;
68583;SDS011;55557;49.220;11.150;2024-02-23T08:10:43;2.63;;;1.07;;
68583;SDS011;55557;49.220;11.150;2024-02-23T08:13:09;1.50;;;0.80;;
68583;SDS011;55557;49.220;11.150;2024-02-23T08:15:36;2.97;;;0.80;;
68583;SDS011;55557;49.220;11.150;2024-02-23T08:18:02;2.03;;;0.57;;
68583;SDS011;55557;49.220;11.150;2024-02-23T08:20:28;2.20;;;0.67;;
68583;SDS011;55557;49.220;11.150;2024-02-23T08:22:54;1.03;;;0.73;;
68583;SDS011;55557;49.220;11.150;2024-02-23T08:25:20;1.20;;;1.10;;
68583;SDS011;55557;49.220;11.150;2024-02-23T08:27:46;0.93;;;0.50;;
68583;SDS011;55557;49.220;11.150;2024-02-23T08:30:13;1.13;;;0.87;;
68583;SDS011;55557;49.220;11.150;2024-02-23T08:32:39;2.90;;;0.80;;
68583;SDS011;55557;49.220;11.150;2024-02-23T08:35:05;0.93;;;0.33;;
68583;SDS011;55557;49.220;11.150;2024-02-23T08:37:32;0.70;;;0.67;;
68583;SDS011;55557;49.220;11.150;2024-02-23T08:39:58;1.80;;;0.70;;
68583;SDS011;55557;49.220;11.150;2024-02-23T08:42:24;2.10;;;0.63;;
68583;SDS011;55557;49.220;11.150;2024-02-23T08:44:50;1.57;;;0.80;;
68583;SDS011;55557;49.220;11.150;2024-02-23T08:47:16;1.67;;;0.50;;
68583;SDS011;55557;49.220;11.150;2024-02-23T08:49:42;2.10;;;0.57;;
68583;SDS011;55557;49.220;11.150;2024-02-23T08:52:08;1.20;;;0.70;;
68583;SDS011;55557;49.220;11.150;2024-02-23T08:54:34;3.90;;;0.40;;
68583;SDS011;55557;49.220;11.150;2024-02-23T08:57:00;1.20;;;0.50;;
68583;SDS011;55557;49.220;11.150;2024-02-23T08:59:26;3.70;;;0.67;;
68583;SDS011;55557;49.220;11.150;2024-02-23T09:01:52;2.53;;;0.50;;
68583;SDS011;55557;49.220;11.150;2024-02-23T09:04:18;0.90;;;0.80;;
68583;SDS011;55557;49.220;11.150;2024-02-23T09:06:44;3.17;;;0.80;;
68583;SDS011;55557;49.220;11.150;2024-02-23T09:09:10;1.40;;;0.47;;
68583;SDS011;55557;49.220;11.150;2024-02-23T09:11:36;2.33;;;0.70;;
68583;SDS011;55557;49.220;11.150;2024-02-23T09:14:03;4.27;;;1.00;;
68583;SDS011;55557;49.220;11.150;2024-02-23T09:16:29;1.60;;;0.40;;
68583;SDS011;55557;49.220;11.150;2024-02-23T09:18:55;3.23;;;0.80;;
68583;SDS011;55557;49.220;11.150;2024-02-23T09:21:21;1.37;;;0.83;;
68583;SDS011;55557;49.220;11.150;2024-02-23T09:23:47;2.20;;;0.63;;
68583;SDS011;55557;49.220;11.150;2024-02-23T09:26:13;1.30;;;0.50;;
68583;SDS011;55557;49.220;11.150;2024-02-23T09:28:39;0.50;;;0.40;;
68583;SDS011;55557;49.220;11.150;2024-02-23T09:31:06;0.63;;;0.40;;
68583;SDS011;55557;49.220;11.150;2024-02-23T09:33:33;2.23;;;0.73;;
68583;SDS011;55557;49.220;11.150;2024-02-23T09:35:59;2.37;;;0.97;;
68583;SDS011;55557;49.220;11.150;2024-02-23T09:38:25;4.50;;;0.83;;
68583;SDS011;55557;49.220;11.150;2024-02-23T09:40:58;3.23;;;0.77;;
68583;SDS011;55557;49.220;11.150;2024-02-23T09:43:26;1.07;;;0.80;;
68583;SDS011;55557;49.220;11.150;2024-02-23T09:45:55;1.40;;;1.10;;
68583;SDS011;55557;49.220;11.150;2024-02-23T09:48:22;1.10;;;0.63;;
68583;SDS011;55557;49.220;11.150;2024-02-23T09:50:49;2.40;;;0.40;;
68583;SDS011;55557;49.220;11.150;2024-02-23T09:53:34;1.37;;;0.50;;
68583;SDS011;55557;49.220;11.150;2024-02-23T09:56:02;0.50;;;0.40;;
68583;SDS011;55557;49.220;11.150;2024-02-23T09:58:32;2.63;;;0.93;;
68583;SDS011;55557;49.220;11.150;2024-02-23T10:00:59;1.87;;;0.80;;
68583;SDS011;55557;49.220;11.150;2024-02-23T10:03:25;0.70;;;0.50;;
68583;SDS011;55557;49.220;11.150;2024-02-23T10:05:53;2.00;;;1.00;;
68583;SDS011;55557;49.220;11.150;2024-02-23T10:08:19;0.77;;;0.60;;
68583;SDS011;55557;49.220;11.150;2024-02-23T10:10:46;2.23;;;0.70;;
68583;SDS011;55557;49.220;11.150;2024-02-23T10:13:17;2.00;;;0.60;;
68583;SDS011;55557;49.220;11.150;2024-02-23T10:15:45;1.87;;;0.80;;
68583;SDS011;55557;49.220;11.150;2024-02-23T10:18:11;2.17;;;0.57;;
68583;SDS011;55557;49.220;11.150;2024-02-23T10:20:37;2.57;;;1.10;;
68583;SDS011;55557;49.220;11.150;2024-02-23T10:23:04;1.70;;;0.77;;
68583;SDS011;55557;49.220;11.150;2024-02-23T10:25:32;4.40;;;0.90;;
68583;SDS011;55557;49.220;11.150;2024-02-23T10:28:00;2.90;;;0.57;;
68583;SDS011;55557;49.220;11.150;2024-02-23T10:30:26;0.60;;;0.40;;
68583;SDS011;55557;49.220;11.150;2024-02-23T10:32:55;2.43;;;0.57;;
68583;SDS011;55557;49.220;11.150;2024-02-23T10:35:21;2.63;;;0.90;;
68583;SDS011;55557;49.220;11.150;2024-02-23T10:37:48;4.20;;;1.77;;
68583;SDS011;55557;49.220;11.150;2024-02-23T10:40:17;4.07;;;1.53;;
68583;SDS011;55557;49.220;11.150;2024-02-23T10:42:43;1.47;;;0.70;;
68583;SDS011;55557;49.220;11.150;2024-02-23T10:45:12;1.70;;;1.00;;
68583;SDS011;55557;49.220;11.150;2024-02-23T10:47:40;1.33;;;0.60;;
68583;SDS011;55557;49.220;11.150;2024-02-23T10:50:06;2.40;;;0.60;;
68583;SDS011;55557;49.220;11.150;2024-02-23T10:52:33;1.30;;;0.60;;
68583;SDS011;55557;49.220;11.150;2024-02-23T10:55:00;0.93;;;0.77;;
68583;SDS011;55557;49.220;11.150;2024-02-23T10:57:29;1.03;;;0.90;;
68583;SDS011;55557;49.220;11.150;2024-02-23T10:59:59;3.90;;;2.27;;
68583;SDS011;55557;49.220;11.150;2024-02-23T11:02:28;2.37;;;1.57;;
68583;SDS011;55557;49.220;11.150;2024-02-23T11:04:57;2.77;;;0.90;;
68583;SDS011;55557;49.220;11.150;2024-02-23T11:07:23;1.33;;;0.60;;
68583;SDS011;55557;49.220;11.150;2024-02-23T11:09:54;4.50;;;1.30;;
68583;SDS011;55557;49.220;11.150;2024-02-23T11:12:24;0.83;;;0.50;;
68583;SDS011;55557;49.220;11.150;2024-02-23T11:14:50;2.27;;;1.10;;
68583;SDS011;55557;49.220;11.150;2024-02-23T11:17:19;5.87;;;1.10;;
68583;SDS011;55557;49.220;11.150;2024-02-23T11:19:48;1.90;;;1.17;;
68583;SDS011;55557;49.220;11.150;2024-02-23T11:22:20;1.47;;;1.37;;
68583;SDS011;55557;49.220;11.150;2024-02-23T11:24:50;0.60;;;0.60;;
68583;SDS011;55557;49.220;11.150;2024-02-23T11:27:16;1.47;;;0.70;;
68583;SDS011;55557;49.220;11.150;2024-02-23T11:29:45;2.13;;;0.60;;
68583;SDS011;55557;49.220;11.150;2024-02-23T11:32:13;0.77;;;0.60;;
68583;SDS011;55557;49.220;11.150;2024-02-23T11:34:39;2.97;;;0.80;;
68583;SDS011;55557;49.220;11.150;2024-02-23T11:37:11;1.70;;;0.70;;
68583;SDS011;55557;49.220;11.150;2024-02-23T11:39:37;1.70;;;0.87;;
68583;SDS011;55557;49.220;11.150;2024-02-23T11:42:06;5.47;;;0.80;;
68583;SDS011;55557;49.220;11.150;2024-02-23T11:44:35;2.47;;;0.87;;
68583;SDS011;55557;49.220;11.150;2024-02-23T11:47:01;4.83;;;0.73;;
68583;SDS011;55557;49.220;11.150;2024-02-23T11:49:30;1.03;;;0.80;;
68583;SDS011;55557;49.220;11.150;2024-02-23T11:51:57;2.53;;;0.67;;
68583;SDS011;55557;49.220;11.150;2024-02-23T11:54:23;1.03;;;0.80;;
68583;SDS011;55557;49.220;11.150;2024-02-23T11:56:49;0.87;;;0.50;;
68583;SDS011;55557;49.220;11.150;2024-02-23T11:59:17;1.77;;;0.77;;
68583;SDS011;55557;49.220;11.150;2024-02-23T12:01:43;5.10;;;0.73;;
68583;SDS011;55557;49.220;11.150;2024-02-23T12:04:11;0.53;;;0.53;;
68583;SDS011;55557;49.220;11.150;2024-02-23T12:06:37;0.80;;;0.70;;
68583;SDS011;55557;49.220;11.150;2024-02-23T12:09:03;3.67;;;3.00;;
68583;SDS011;55557;49.220;11.150;2024-02-23T12:11:29;3.07;;;1.90;;
68583;SDS011;55557;49.220;11.150;2024-02-23T12:13:56;1.27;;;0.93;;
68583;SDS011;55557;49.220;11.150;2024-02-23T12:16:22;0.87;;;0.70;;
68583;SDS011;55557;49.220;11.150;2024-02-23T12:18:55;4.30;;;1.00;;
68583;SDS011;55557;49.220;11.150;2024-02-23T12:21:22;2.27;;;1.00;;
68583;SDS011;55557;49.220;11.150;2024-02-23T12:23:49;1.33;;;1.10;;
68583;SDS011;55557;49.220;11.150;2024-02-23T12:26:16;1.83;;;0.80;;
68583;SDS011;55557;49.220;11.150;2024-02-23T12:28:42;2.30;;;0.70;;
68583;SDS011;55557;49.220;11.150;2024-02-23T12:31:09;6.70;;;1.30;;
68583;SDS011;55557;49.220;11.150;2024-02-23T12:33:35;1.37;;;1.00;;
68583;SDS011;55557;49.220;11.150;2024-02-23T12:36:05;1.50;;;0.97;;
68583;SDS011;55557;49.220;11.150;2024-02-23T12:38:31;2.17;;;1.33;;
68583;SDS011;55557;49.220;11.150;2024-02-23T12:40:58;2.67;;;1.00;;
68583;SDS011;55557;49.220;11.150;2024-02-23T12:43:24;4.00;;;0.67;;
68583;SDS011;55557;49.220;11.150;2024-02-23T12:45:51;2.13;;;1.20;;
68583;SDS011;55557;49.220;11.150;2024-02-23T12:48:17;0.93;;;0.70;;
68583;SDS011;55557;49.220;11.150;2024-02-23T12:50:44;3.23;;;1.57;;
68583;SDS011;55557;49.220;11.150;2024-02-23T12:55:56;1.50;;;1.00;;
68583;SDS011;55557;49.220;11.150;2024-02-23T12:58:22;9.67;;;3.23;;
68583;SDS011;55557;49.220;11.150;2024-02-23T13:00:48;17.63;;;6.73;;
68583;SDS011;55557;49.220;11.150;2024-02-23T13:03:14;6.70;;;2.90;;
68583;SDS011;55557;49.220;11.150;2024-02-23T13:05:40;4.70;;;1.43;;
68583;SDS011;55557;49.220;11.150;2024-02-23T13:08:06;5.93;;;2.10;;
68583;SDS011;55557;49.220;11.150;2024-02-23T13:10:32;4.00;;;2.33;;
68583;SDS011;55557;49.220;11.150;2024-02-23T13:13:00;9.20;;;3.63;;
68583;SDS011;55557;49.220;11.150;2024-02-23T13:15:26;7.33;;;2.27;;
68583;SDS011;55557;49.220;11.150;2024-02-23T13:17:51;6.00;;;2.97;;
68583;SDS011;55557;49.220;11.150;2024-02-23T13:20:18;10.93;;;4.73;;
68583;SDS011;55557;49.220;11.150;2024-02-23T13:22:44;5.23;;;2.67;;
68583;SDS011;55557;49.220;11.150;2024-02-23T13:25:10;5.13;;;2.20;;
68583;SDS011;55557;49.220;11.150;2024-02-23T13:27:36;2.83;;;1.03;;
68583;SDS011;55557;49.220;11.150;2024-02-23T13:30:03;4.77;;;2.20;;
68583;SDS011;55557;49.220;11.150;2024-02-23T13:32:29;2.37;;;1.37;;
68583;SDS011;55557;49.220;11.150;2024-02-23T13:34:55;3.63;;;1.73;;
68583;SDS011;55557;49.220;11.150;2024-02-23T13:37:21;1.87;;;1.03;;
68583;SDS011;55557;49.220;11.150;2024-02-23T13:39:47;3.57;;;1.30;;
68583;SDS011;55557;49.220;11.150;2024-02-23T13:42:13;2.57;;;1.07;;
68583;SDS011;55557;49.220;11.150;2024-02-23T13:44:39;2.63;;;1.00;;
68583;SDS011;55557;49.220;11.150;2024-02-23T13:47:06;2.97;;;1.27;;
68583;SDS011;55557;49.220;11.150;2024-02-23T13:49:32;7.23;;;1.50;;
68583;SDS011;55557;49.220;11.150;2024-02-23T13:51:58;5.50;;;1.80;;
68583;SDS011;55557;49.220;11.150;2024-02-23T13:54:24;3.57;;;1.70;;
68583;SDS011;55557;49.220;11.150;2024-02-23T13:56:50;4.53;;;1.50;;
68583;SDS011;55557;49.220;11.150;2024-02-23T13:59:16;1.60;;;1.20;;
68583;SDS011;55557;49.220;11.150;2024-02-23T14:01:42;1.30;;;0.90;;
68583;SDS011;55557;49.220;11.150;2024-02-23T14:04:10;2.17;;;1.23;;
68583;SDS011;55557;49.220;11.150;2024-02-23T14:06:36;3.80;;;1.57;;
68583;SDS011;55557;49.220;11.150;2024-02-23T14:09:02;2.37;;;1.30;;
68583;SDS011;55557;49.220;11.150;2024-02-23T14:11:29;6.73;;;1.63;;
68583;SDS011;55557;49.220;11.150;2024-02-23T14:13:55;3.10;;;1.53;;
68583;SDS011;55557;49.220;11.150;2024-02-23T14:16:21;1.43;;;1.10;;
68583;SDS011;55557;49.220;11.150;2024-02-23T14:18:48;2.23;;;1.10;;
68583;SDS011;55557;49.220;11.150;2024-02-23T14:21:15;3.33;;;0.90;;
68583;SDS011;55557;49.220;11.150;2024-02-23T14:23:43;2.43;;;1.03;;
68583;SDS011;55557;49.220;11.150;2024-02-23T14:26:09;1.40;;;1.00;;
68583;SDS011;55557;49.220;11.150;2024-02-23T14:28:38;4.13;;;1.23;;
68583;SDS011;55557;49.220;11.150;2024-02-23T14:31:04;5.33;;;1.07;;